Time;durP1;ratioP1;P1;durP2;ratioP2;P2;SDS_P1;SDS_P2;PMS_P1;PMS_P2;Temp;Humidity;BMP_temperature;BMP_pressure;BME280_temperature;BME280_humidity;BME280_pressure;Samples;Min_cycle;Max_cycle;Signal;HPM_P1;HPM_P2
2023/09/08 00:02:08;;;;;;;2.55;2.35;;;26.90;50.90;;;;;;5017435;28;20695;-65
2023/09/08 00:04:34;;;;;;;3.03;2.40;;;26.90;50.90;;;;;;5031291;28;20333;-64
2023/09/08 00:07:01;;;;;;;2.65;2.10;;;26.80;50.90;;;;;;5031656;28;20105;-63
2023/09/08 00:09:27;;;;;;;4.30;2.40;;;26.80;50.90;;;;;;5036681;28;20033;-63
2023/09/08 00:11:54;;;;;;;2.78;2.33;;;26.80;50.90;;;;;;5032797;28;20226;-63
2023/09/08 00:14:20;;;;;;;2.60;2.20;;;26.80;50.90;;;;;;5035016;28;20417;-64
2023/09/08 00:16:46;;;;;;;2.78;2.38;;;26.80;50.90;;;;;;5031178;28;20055;-64
2023/09/08 00:19:12;;;;;;;3.20;2.33;;;26.80;50.90;;;;;;5035409;28;20112;-63
2023/09/08 00:21:38;;;;;;;2.72;2.40;;;26.80;50.90;;;;;;5033748;28;20083;-65
2023/09/08 00:24:04;;;;;;;3.65;2.35;;;26.80;50.90;;;;;;5029196;28;20030;-64
2023/09/08 00:26:30;;;;;;;2.40;2.20;;;26.80;50.90;;;;;;5033999;28;20068;-64
2023/09/08 00:28:56;;;;;;;2.65;2.30;;;26.70;50.80;;;;;;5029229;28;20093;-65
2023/09/08 00:31:22;;;;;;;3.60;2.60;;;26.80;50.90;;;;;;5029008;28;20136;-64
2023/09/08 00:33:48;;;;;;;3.15;2.35;;;26.70;50.80;;;;;;5033668;28;20033;-64
2023/09/08 00:36:15;;;;;;;3.83;2.50;;;26.80;50.90;;;;;;5029067;28;20386;-63
2023/09/08 00:38:41;;;;;;;3.30;2.30;;;26.70;50.80;;;;;;5013404;28;20103;-65
2023/09/08 00:41:07;;;;;;;3.40;2.60;;;26.70;50.80;;;;;;5015994;28;20574;-65
2023/09/08 00:43:33;;;;;;;3.17;2.58;;;26.70;50.80;;;;;;5031394;28;20025;-65
2023/09/08 00:46:02;;;;;;;2.83;2.45;;;26.70;50.80;;;;;;5014145;28;20136;-65
2023/09/08 00:48:29;;;;;;;3.13;2.75;;;26.70;50.80;;;;;;4995366;28;20069;-64
2023/09/08 00:50:55;;;;;;;3.50;2.10;;;26.70;50.80;;;;;;4992029;28;20030;-64
2023/09/08 00:53:22;;;;;;;3.58;2.67;;;26.70;50.80;;;;;;4993268;28;20038;-63
2023/09/08 00:55:48;;;;;;;3.13;2.53;;;26.70;50.80;;;;;;4993736;28;20428;-65
2023/09/08 00:58:14;;;;;;;3.60;2.85;;;26.70;50.80;;;;;;4996974;28;20095;-63
2023/09/08 01:00:40;;;;;;;3.17;2.10;;;26.70;50.80;;;;;;4993445;28;20030;-63
2023/09/08 01:03:06;;;;;;;2.88;2.25;;;26.70;50.80;;;;;;4992917;28;20046;-64
2023/09/08 01:05:32;;;;;;;2.60;2.10;;;26.60;50.70;;;;;;4993289;28;20038;-65
2023/09/08 01:08:00;;;;;;;3.20;2.60;;;26.60;50.70;;;;;;4999550;28;20034;-63
2023/09/08 01:10:27;;;;;;;2.30;2.10;;;26.60;50.70;;;;;;4982908;28;20037;-63
2023/09/08 01:12:53;;;;;;;3.10;2.38;;;26.60;50.70;;;;;;5000835;28;20422;-63
2023/09/08 01:15:19;;;;;;;2.88;2.42;;;26.60;50.70;;;;;;4973421;28;20193;-63
2023/09/08 01:17:45;;;;;;;2.85;2.42;;;26.60;50.70;;;;;;5014311;28;20177;-64
2023/09/08 01:20:46;;;;;;;3.15;2.70;;;26.60;50.70;;;;;;4985437;28;20444;-62
2023/09/08 01:23:15;;;;;;;3.00;2.42;;;26.60;50.70;;;;;;4965514;28;20054;-64
2023/09/08 01:25:50;;;;;;;2.50;2.30;;;26.60;50.70;;;;;;4982907;28;20463;-63
2023/09/08 01:28:17;;;;;;;4.40;2.33;;;26.60;50.60;;;;;;4992007;28;20222;-63
2023/09/08 01:30:45;;;;;;;5.10;2.70;;;26.60;50.60;;;;;;4991605;28;20446;-65
2023/09/08 01:33:12;;;;;;;2.78;2.33;;;26.60;50.60;;;;;;4992398;28;20125;-63
2023/09/08 01:35:38;;;;;;;4.38;2.80;;;26.60;50.60;;;;;;4997337;28;20422;-66
2023/09/08 01:38:04;;;;;;;3.92;2.85;;;26.60;50.60;;;;;;4988027;28;20048;-62
2023/09/08 01:40:31;;;;;;;4.53;2.40;;;26.60;50.60;;;;;;5011027;28;20110;-63
2023/09/08 01:42:57;;;;;;;2.72;2.50;;;26.60;50.60;;;;;;4982048;28;20069;-65
2023/09/08 01:45:23;;;;;;;3.30;2.50;;;26.50;50.50;;;;;;4976578;28;20444;-64
2023/09/08 01:47:49;;;;;;;2.65;2.35;;;26.50;50.50;;;;;;5015663;28;20381;-64
2023/09/08 01:50:21;;;;;;;3.50;2.35;;;26.50;50.50;;;;;;5027526;28;20034;-64
2023/09/08 01:52:47;;;;;;;2.80;2.50;;;26.50;50.50;;;;;;5033056;28;20090;-64
2023/09/08 01:55:13;;;;;;;4.10;2.50;;;26.50;50.50;;;;;;5033903;28;20029;-63
2023/09/08 01:57:39;;;;;;;2.58;2.20;;;26.50;50.40;;;;;;5028951;28;20036;-64
2023/09/08 02:00:06;;;;;;;3.50;2.47;;;26.50;50.40;;;;;;5008891;28;20426;-64
2023/09/08 02:02:38;;;;;;;2.83;2.45;;;26.50;50.40;;;;;;5031933;28;20103;-63
2023/09/08 02:05:05;;;;;;;3.40;2.67;;;26.50;50.40;;;;;;5031993;28;20439;-63
2023/09/08 02:07:31;;;;;;;3.20;2.53;;;26.50;50.40;;;;;;5012318;28;20030;-64
2023/09/08 02:09:57;;;;;;;4.78;2.70;;;26.50;50.40;;;;;;5018257;28;20052;-63
2023/09/08 02:12:23;;;;;;;2.40;2.20;;;26.40;50.30;;;;;;5021748;28;20025;-63
2023/09/08 02:14:49;;;;;;;2.95;2.40;;;26.50;50.40;;;;;;5030303;28;20029;-63
2023/09/08 02:17:14;;;;;;;2.78;2.30;;;26.50;50.40;;;;;;4997440;28;20033;-62
2023/09/08 02:19:40;;;;;;;2.60;2.40;;;26.50;50.40;;;;;;5039411;28;20025;-66
2023/09/08 02:22:06;;;;;;;2.20;1.98;;;26.40;50.40;;;;;;5042706;28;20177;-64
2023/09/08 02:24:32;;;;;;;2.85;2.55;;;26.40;50.30;;;;;;5031294;28;20364;-62
2023/09/08 02:26:58;;;;;;;3.08;2.72;;;26.40;50.30;;;;;;5013060;28;20037;-63
2023/09/08 02:29:24;;;;;;;3.35;2.92;;;26.40;50.30;;;;;;5000447;28;20460;-63
2023/09/08 02:31:50;;;;;;;3.10;2.40;;;26.40;50.40;;;;;;5029240;28;20030;-63
2023/09/08 02:34:17;;;;;;;2.72;2.20;;;26.40;50.30;;;;;;4995268;28;20057;-63
2023/09/08 02:36:43;;;;;;;3.10;2.55;;;26.40;50.40;;;;;;4994218;28;20065;-64
2023/09/08 02:39:10;;;;;;;2.72;2.50;;;26.40;50.30;;;;;;4992912;28;20409;-63
2023/09/08 02:41:36;;;;;;;2.95;2.65;;;26.40;50.30;;;;;;5031664;28;20044;-62
2023/09/08 02:44:02;;;;;;;3.08;2.75;;;26.40;50.30;;;;;;5031519;28;20033;-62
2023/09/08 02:46:28;;;;;;;3.38;2.50;;;26.40;50.30;;;;;;5021356;28;20053;-65
2023/09/08 02:48:54;;;;;;;3.17;2.40;;;26.40;50.30;;;;;;5013750;28;20034;-63
2023/09/08 02:51:21;;;;;;;3.03;2.28;;;26.40;50.30;;;;;;5015469;28;20045;-64
2023/09/08 02:53:47;;;;;;;3.08;2.70;;;26.40;50.30;;;;;;5021073;28;20104;-63
2023/09/08 02:56:13;;;;;;;3.40;2.42;;;26.40;50.30;;;;;;5054818;28;20048;-63
2023/09/08 02:58:39;;;;;;;5.88;2.63;;;26.40;50.30;;;;;;5045591;28;20025;-63
2023/09/08 03:01:15;;;;;;;3.78;2.60;;;26.30;50.20;;;;;;5034897;28;20064;-63
2023/09/08 03:03:42;;;;;;;2.50;2.08;;;26.40;50.30;;;;;;4997287;28;20095;-63
2023/09/08 03:06:11;;;;;;;2.97;2.58;;;26.30;50.20;;;;;;4998150;28;20081;-64
2023/09/08 03:08:39;;;;;;;3.17;2.70;;;26.30;50.20;;;;;;5019353;28;20025;-63
2023/09/08 03:11:08;;;;;;;3.15;2.65;;;26.30;50.20;;;;;;5031728;28;20040;-63
2023/09/08 03:13:35;;;;;;;3.47;2.80;;;26.30;50.20;;;;;;5019931;28;20021;-63
2023/09/08 03:16:05;;;;;;;3.40;2.78;;;26.30;50.20;;;;;;5015945;28;20132;-64
2023/09/08 03:18:36;;;;;;;3.38;2.58;;;26.30;50.20;;;;;;5027687;28;20036;-63
2023/09/08 03:21:09;;;;;;;2.90;2.55;;;26.30;50.20;;;;;;5036468;28;20068;-63
2023/09/08 03:23:40;;;;;;;4.40;2.92;;;26.30;50.20;;;;;;5037685;28;20108;-64
2023/09/08 03:26:06;;;;;;;3.38;2.70;;;26.20;50.20;;;;;;5034042;28;20044;-64
2023/09/08 03:28:33;;;;;;;3.88;2.90;;;26.20;50.20;;;;;;5022891;28;20360;-64
2023/09/08 03:31:01;;;;;;;3.22;2.83;;;26.30;50.20;;;;;;5034750;28;20029;-64
2023/09/08 03:33:26;;;;;;;3.20;2.72;;;26.30;50.20;;;;;;5033804;28;20052;-64
2023/09/08 03:35:52;;;;;;;4.03;2.88;;;26.20;50.20;;;;;;5004296;28;20046;-63
2023/09/08 03:38:19;;;;;;;3.55;2.95;;;26.20;50.20;;;;;;5012211;28;20374;-62
2023/09/08 03:40:44;;;;;;;3.75;2.90;;;26.20;50.20;;;;;;5029287;28;20037;-64
2023/09/08 03:43:10;;;;;;;4.53;3.17;;;26.20;50.20;;;;;;5016415;28;20026;-63
2023/09/08 03:45:37;;;;;;;3.40;2.70;;;26.20;50.20;;;;;;5034136;28;20032;-63
2023/09/08 03:48:03;;;;;;;4.75;2.80;;;26.20;50.20;;;;;;5033817;28;20148;-64
2023/09/08 03:50:29;;;;;;;3.10;2.80;;;26.20;50.20;;;;;;5004330;28;20377;-63
2023/09/08 03:52:56;;;;;;;3.15;2.83;;;26.20;50.20;;;;;;5033637;28;20045;-64
2023/09/08 03:55:24;;;;;;;3.60;2.97;;;26.20;50.20;;;;;;5024793;28;20046;-63
2023/09/08 03:57:49;;;;;;;4.05;3.00;;;26.20;50.20;;;;;;5014298;28;20037;-63
2023/09/08 04:00:21;;;;;;;3.03;2.50;;;26.20;50.20;;;;;;5013814;28;20048;-63
2023/09/08 04:02:48;;;;;;;4.38;2.70;;;26.20;50.20;;;;;;5044610;28;20452;-63
2023/09/08 04:05:15;;;;;;;3.15;2.50;;;26.20;50.20;;;;;;5027083;28;20383;-64
2023/09/08 04:07:41;;;;;;;3.38;2.78;;;26.10;50.10;;;;;;5016932;28;20110;-63
2023/09/08 04:10:09;;;;;;;3.80;3.20;;;26.10;50.20;;;;;;4999867;28;20055;-64
2023/09/08 04:12:34;;;;;;;4.03;3.08;;;26.20;50.20;;;;;;5033511;28;20872;-64
2023/09/08 04:15:01;;;;;;;3.90;2.90;;;26.10;50.20;;;;;;5015987;28;20040;-63
2023/09/08 04:17:27;;;;;;;3.53;2.85;;;26.10;50.20;;;;;;5020931;28;20415;-64
2023/09/08 04:19:53;;;;;;;4.05;2.92;;;26.20;50.30;;;;;;5021732;28;20034;-63
2023/09/08 04:22:19;;;;;;;3.55;2.78;;;26.10;50.20;;;;;;5015966;28;20570;-65
2023/09/08 04:24:45;;;;;;;3.20;2.88;;;26.10;50.20;;;;;;5030500;28;20211;-63
2023/09/08 04:27:11;;;;;;;4.05;2.97;;;26.10;50.20;;;;;;5032621;28;20101;-62
2023/09/08 04:29:37;;;;;;;3.40;2.75;;;26.10;50.20;;;;;;5024528;28;20025;-63
2023/09/08 04:32:08;;;;;;;4.60;3.50;;;26.10;50.20;;;;;;5019765;28;20337;-64
2023/09/08 04:34:39;;;;;;;2.83;2.53;;;26.10;50.20;;;;;;5047811;28;20394;-63
2023/09/08 04:37:05;;;;;;;3.55;2.88;;;26.00;50.20;;;;;;5030118;28;20116;-62
2023/09/08 04:39:32;;;;;;;3.10;2.60;;;26.10;50.30;;;;;;5014928;28;20175;-63
2023/09/08 04:41:58;;;;;;;4.50;3.08;;;26.00;50.20;;;;;;5033238;28;20026;-65
2023/09/08 04:44:24;;;;;;;3.45;2.60;;;26.00;50.20;;;;;;5014907;28;20118;-63
2023/09/08 04:46:51;;;;;;;4.82;3.03;;;26.00;50.20;;;;;;5030529;28;20065;-64
2023/09/08 04:49:18;;;;;;;3.58;2.95;;;26.00;50.20;;;;;;5029435;28;20134;-63
2023/09/08 04:51:44;;;;;;;3.85;3.28;;;26.00;50.30;;;;;;5052638;28;20081;-65
2023/09/08 04:54:10;;;;;;;4.57;3.03;;;26.00;50.30;;;;;;5034158;28;20028;-63
2023/09/08 04:56:38;;;;;;;3.35;2.90;;;26.00;50.30;;;;;;5034801;28;20425;-64
2023/09/08 04:59:04;;;;;;;4.20;2.88;;;26.00;50.30;;;;;;5045834;28;20104;-62
2023/09/08 05:01:32;;;;;;;3.95;3.28;;;26.00;50.30;;;;;;5030928;28;20117;-63
2023/09/08 05:04:01;;;;;;;4.45;3.33;;;26.00;50.30;;;;;;5015321;28;20122;-63
2023/09/08 05:06:28;;;;;;;3.72;2.95;;;26.00;50.30;;;;;;5014577;28;20495;-64
2023/09/08 05:08:53;;;;;;;3.38;3.00;;;26.00;50.40;;;;;;5002503;28;20054;-64
2023/09/08 05:11:22;;;;;;;3.53;3.03;;;26.00;50.40;;;;;;5028975;28;20480;-64
2023/09/08 05:13:48;;;;;;;3.42;2.97;;;26.00;50.50;;;;;;5014056;28;20034;-63
2023/09/08 05:16:14;;;;;;;3.40;3.00;;;26.00;50.40;;;;;;5015988;28;20079;-63
2023/09/08 05:18:48;;;;;;;3.78;3.38;;;26.00;50.40;;;;;;5014782;28;20082;-63
2023/09/08 05:21:14;;;;;;;3.45;2.65;;;25.90;50.30;;;;;;5014685;28;20033;-64
2023/09/08 05:23:40;;;;;;;3.03;2.72;;;26.00;50.40;;;;;;5030960;28;20467;-65
2023/09/08 05:26:07;;;;;;;3.72;3.10;;;26.00;50.40;;;;;;5031097;28;20057;-63
2023/09/08 05:28:33;;;;;;;3.28;2.90;;;25.90;50.40;;;;;;5002168;28;20053;-64
2023/09/08 05:30:59;;;;;;;4.05;3.00;;;26.00;50.40;;;;;;5027240;28;20087;-64
2023/09/08 05:33:25;;;;;;;3.75;3.10;;;26.00;50.40;;;;;;5034575;28;20029;-63
2023/09/08 05:35:52;;;;;;;3.95;3.10;;;26.00;50.50;;;;;;5034295;28;20120;-63
2023/09/08 05:38:18;;;;;;;4.45;3.33;;;25.90;50.40;;;;;;5027256;28;20452;-64
2023/09/08 05:40:44;;;;;;;3.72;2.80;;;26.00;50.40;;;;;;5051664;28;20029;-65
2023/09/08 05:43:10;;;;;;;4.03;3.00;;;25.90;50.40;;;;;;5051363;28;20051;-64
2023/09/08 05:45:36;;;;;;;3.35;2.72;;;25.90;50.40;;;;;;5029238;28;20033;-63
2023/09/08 05:48:03;;;;;;;3.58;2.80;;;26.00;50.50;;;;;;4986152;28;20194;-63
2023/09/08 05:50:29;;;;;;;3.55;2.92;;;26.00;50.50;;;;;;5013459;28;20103;-64
2023/09/08 05:52:56;;;;;;;4.93;3.22;;;26.00;50.50;;;;;;5014696;28;20049;-64
2023/09/08 05:55:22;;;;;;;4.28;3.00;;;25.90;50.40;;;;;;5013443;28;20120;-65
2023/09/08 05:57:48;;;;;;;3.72;2.83;;;25.90;50.50;;;;;;5025771;28;20417;-64
2023/09/08 06:00:14;;;;;;;4.18;3.13;;;25.90;50.50;;;;;;5012436;28;20087;-63
2023/09/08 06:02:44;;;;;;;3.85;3.45;;;25.90;50.50;;;;;;5035154;28;20041;-64
2023/09/08 06:05:12;;;;;;;3.85;3.10;;;25.90;50.50;;;;;;5010796;28;20033;-65
2023/09/08 06:07:39;;;;;;;3.67;2.83;;;25.90;50.50;;;;;;5036927;28;20021;-64
2023/09/08 06:10:07;;;;;;;4.88;3.40;;;26.00;50.60;;;;;;5030279;28;20036;-65
2023/09/08 06:12:33;;;;;;;3.97;3.53;;;25.90;50.60;;;;;;5013668;28;20033;-66
2023/09/08 06:14:59;;;;;;;3.53;2.88;;;26.00;50.60;;;;;;5002158;28;20376;-64
2023/09/08 06:17:25;;;;;;;4.32;3.08;;;25.90;50.60;;;;;;5028557;28;20402;-65
2023/09/08 06:19:52;;;;;;;3.25;2.85;;;25.90;50.60;;;;;;5032973;28;20047;-65
2023/09/08 06:22:17;;;;;;;3.63;2.95;;;25.90;50.70;;;;;;5044260;28;20037;-62
2023/09/08 06:24:43;;;;;;;3.60;2.85;;;25.90;50.70;;;;;;5031221;28;20026;-60
2023/09/08 06:27:11;;;;;;;4.28;3.50;;;25.90;50.70;;;;;;5016955;28;20026;-64
2023/09/08 06:29:38;;;;;;;4.72;3.33;;;25.90;50.70;;;;;;5047745;28;20132;-64
2023/09/08 06:32:04;;;;;;;3.72;3.00;;;26.00;50.80;;;;;;5031240;28;20105;-63
2023/09/08 06:34:30;;;;;;;5.32;3.15;;;25.90;50.80;;;;;;5037439;28;20033;-63
2023/09/08 06:36:56;;;;;;;5.80;3.75;;;25.90;50.80;;;;;;5037621;28;20029;-62
2023/09/08 06:39:25;;;;;;;4.40;3.40;;;25.90;50.80;;;;;;5017155;28;20080;-63
2023/09/08 06:41:51;;;;;;;4.97;3.10;;;25.90;50.90;;;;;;5035407;28;20018;-63
2023/09/08 06:44:22;;;;;;;4.72;3.50;;;25.90;50.90;;;;;;5015814;28;20037;-63
2023/09/08 06:46:48;;;;;;;5.65;3.65;;;25.90;50.90;;;;;;5013196;28;20144;-64
2023/09/08 06:49:14;;;;;;;4.68;3.60;;;26.00;51.00;;;;;;5030422;28;20065;-63
2023/09/08 06:51:40;;;;;;;5.32;3.50;;;25.90;51.00;;;;;;5037034;28;20033;-62
2023/09/08 06:54:07;;;;;;;5.35;3.75;;;25.90;51.00;;;;;;5022864;28;20078;-62
2023/09/08 06:56:37;;;;;;;5.93;4.00;;;25.90;51.00;;;;;;5028424;28;20112;-62
2023/09/08 06:59:04;;;;;;;5.15;3.20;;;25.90;51.10;;;;;;5029704;28;20067;-62
2023/09/08 07:01:30;;;;;;;4.80;3.55;;;25.90;51.10;;;;;;5020494;28;20081;-62
2023/09/08 07:03:56;;;;;;;5.13;3.85;;;25.90;51.10;;;;;;5018430;28;20017;-62
2023/09/08 07:06:22;;;;;;;5.07;3.63;;;26.00;51.20;;;;;;4990303;28;20026;-64
2023/09/08 07:08:50;;;;;;;5.55;3.60;;;25.90;51.10;;;;;;5024443;28;20352;-62
2023/09/08 07:11:17;;;;;;;5.32;3.63;;;25.90;51.10;;;;;;5022599;28;20021;-62
2023/09/08 07:13:43;;;;;;;5.15;4.15;;;25.90;51.10;;;;;;5027191;28;20037;-62
2023/09/08 07:16:10;;;;;;;4.25;3.47;;;26.00;51.20;;;;;;5036451;28;20063;-62
2023/09/08 07:18:37;;;;;;;5.07;3.78;;;26.00;51.20;;;;;;4999253;28;20052;-64
2023/09/08 07:21:04;;;;;;;4.18;3.30;;;26.00;51.20;;;;;;5030680;28;20037;-61
2023/09/08 07:23:30;;;;;;;4.68;3.35;;;26.00;51.20;;;;;;5011728;28;20093;-63
2023/09/08 07:25:56;;;;;;;5.20;4.43;;;26.00;51.20;;;;;;5032515;28;20101;-62
2023/09/08 07:28:26;;;;;;;3.92;3.30;;;26.00;51.20;;;;;;5048358;28;20036;-63
2023/09/08 07:30:54;;;;;;;7.57;3.90;;;26.00;51.10;;;;;;5036439;28;20120;-63
2023/09/08 07:33:22;;;;;;;5.68;3.53;;;26.00;51.10;;;;;;5035959;28;20036;-60
2023/09/08 07:35:48;;;;;;;4.47;3.50;;;26.00;51.10;;;;;;5034500;28;20144;-61
2023/09/08 07:38:14;;;;;;;5.65;4.00;;;26.00;51.10;;;;;;5017537;28;20108;-62
2023/09/08 07:40:41;;;;;;;4.38;3.38;;;26.00;51.10;;;;;;5030611;28;20593;-62
2023/09/08 07:43:07;;;;;;;4.18;3.20;;;26.00;51.10;;;;;;5043615;28;20437;-62
2023/09/08 07:45:33;;;;;;;4.30;3.42;;;26.00;51.10;;;;;;5033798;28;20033;-62
2023/09/08 07:47:59;;;;;;;3.90;3.05;;;26.10;51.10;;;;;;5028229;28;20188;-62
2023/09/08 07:50:27;;;;;;;4.38;3.55;;;26.00;51.10;;;;;;5003748;28;20044;-63
2023/09/08 07:52:55;;;;;;;4.75;3.28;;;26.10;51.10;;;;;;5030176;28;20108;-61
2023/09/08 07:55:28;;;;;;;5.88;3.63;;;26.10;51.10;;;;;;5028029;28;20029;-63
2023/09/08 07:57:55;;;;;;;3.50;3.10;;;26.10;51.20;;;;;;5031542;28;20091;-62
2023/09/08 08:00:21;;;;;;;4.03;3.33;;;26.10;51.20;;;;;;5022880;28;20064;-61
2023/09/08 08:02:48;;;;;;;3.83;3.30;;;26.10;51.20;;;;;;5034253;28;20048;-62
2023/09/08 08:05:15;;;;;;;4.03;3.33;;;26.10;51.30;;;;;;5033991;28;20105;-62
2023/09/08 08:07:43;;;;;;;5.10;3.60;;;26.10;51.30;;;;;;5036197;28;20030;-61
2023/09/08 08:10:09;;;;;;;5.38;3.22;;;26.20;51.40;;;;;;5033744;28;20302;-61
2023/09/08 08:12:36;;;;;;;4.13;3.30;;;26.10;51.30;;;;;;5013000;28;20044;-62
2023/09/08 08:15:02;;;;;;;3.75;3.33;;;26.10;51.30;;;;;;5026803;28;20041;-62
2023/09/08 08:17:29;;;;;;;3.97;3.30;;;26.20;51.40;;;;;;5027782;28;20048;-61
2023/09/08 08:19:56;;;;;;;3.72;3.17;;;26.10;51.40;;;;;;5045978;28;20033;-60
2023/09/08 08:22:22;;;;;;;6.13;3.50;;;26.20;51.40;;;;;;5033372;28;20025;-62
2023/09/08 08:24:48;;;;;;;3.38;3.08;;;26.20;51.50;;;;;;5033107;28;20048;-62
2023/09/08 08:27:14;;;;;;;4.15;3.30;;;26.20;51.50;;;;;;5039723;28;20029;-60
2023/09/08 08:29:40;;;;;;;3.92;3.15;;;26.20;51.50;;;;;;5043290;28;20397;-61
2023/09/08 08:32:06;;;;;;;4.18;3.08;;;26.20;51.50;;;;;;5042930;28;20029;-61
2023/09/08 08:34:32;;;;;;;3.63;3.05;;;26.20;51.50;;;;;;5047263;28;20725;-61
2023/09/08 08:36:58;;;;;;;3.90;3.17;;;26.20;51.60;;;;;;5053120;28;20082;-60
2023/09/08 08:39:24;;;;;;;3.15;2.85;;;26.20;51.60;;;;;;5048815;28;20035;-61
2023/09/08 08:41:49;;;;;;;3.90;3.10;;;26.20;51.60;;;;;;5043474;28;20151;-62
2023/09/08 08:44:18;;;;;;;4.15;3.22;;;26.20;51.70;;;;;;5051094;28;20029;-63
2023/09/08 08:46:46;;;;;;;4.20;3.13;;;26.20;51.70;;;;;;5037550;28;20037;-60
2023/09/08 08:49:14;;;;;;;3.15;2.83;;;26.20;51.70;;;;;;5014550;28;20409;-61
2023/09/08 08:51:44;;;;;;;3.78;2.90;;;26.20;51.70;;;;;;5049510;28;20041;-61
2023/09/08 08:54:15;;;;;;;3.80;3.15;;;26.20;51.70;;;;;;5034996;28;20033;-62
2023/09/08 08:56:42;;;;;;;3.78;3.15;;;26.20;51.80;;;;;;5026004;28;20037;-62
2023/09/08 08:59:10;;;;;;;4.13;3.08;;;26.20;51.80;;;;;;5035301;28;20437;-62
2023/09/08 09:01:36;;;;;;;4.97;3.33;;;26.30;51.90;;;;;;5051089;28;20056;-61
2023/09/08 09:04:06;;;;;;;3.65;3.10;;;26.30;51.90;;;;;;5052437;28;20032;-61
2023/09/08 09:06:32;;;;;;;3.60;2.90;;;26.30;51.90;;;;;;5048717;28;20029;-60
2023/09/08 09:08:59;;;;;;;3.60;2.90;;;26.30;51.90;;;;;;5044203;28;20021;-62
2023/09/08 09:11:25;;;;;;;4.88;3.40;;;26.30;51.90;;;;;;5040430;28;20029;-62
2023/09/08 09:13:51;;;;;;;3.25;2.95;;;26.30;52.00;;;;;;5017683;28;20078;-61
2023/09/08 09:16:17;;;;;;;3.33;3.03;;;26.30;52.00;;;;;;5034428;28;20120;-62
2023/09/08 09:18:58;;;;;;;5.60;3.45;;;26.30;52.00;;;;;;5024853;28;20040;-61
2023/09/08 09:21:25;;;;;;;3.85;3.00;;;26.30;52.10;;;;;;5040388;28;20394;-62
2023/09/08 09:23:51;;;;;;;3.97;3.28;;;26.30;52.10;;;;;;5029873;28;20029;-62
2023/09/08 09:26:25;;;;;;;4.32;3.22;;;26.30;52.20;;;;;;5031652;28;20056;-61
2023/09/08 09:28:52;;;;;;;;;;;26.30;52.20;;;;;;5032194;28;20048;-62
2023/09/08 09:31:18;;;;;;;4.30;3.10;;;26.40;52.30;;;;;;5039357;28;19998;-62
2023/09/08 09:33:45;;;;;;;3.05;2.75;;;26.40;52.30;;;;;;5047115;28;20059;-62
2023/09/08 09:36:20;;;;;;;3.40;3.08;;;26.30;52.30;;;;;;5036689;28;20119;-61
2023/09/08 09:38:47;;;;;;;3.95;3.10;;;26.40;52.40;;;;;;5051647;28;20048;-61
2023/09/08 09:41:13;;;;;;;3.40;2.90;;;26.40;52.40;;;;;;5050748;28;20052;-61
2023/09/08 09:43:40;;;;;;;3.97;2.92;;;26.40;52.50;;;;;;5034165;28;20034;-61
2023/09/08 09:46:08;;;;;;;3.80;2.67;;;26.40;52.50;;;;;;5033198;28;20041;-62
2023/09/08 09:48:35;;;;;;;3.15;2.85;;;26.40;52.50;;;;;;5051304;28;20383;-62
2023/09/08 09:51:19;;;;;;;3.00;2.60;;;26.40;52.50;;;;;;5049373;28;20401;-61
2023/09/08 09:53:45;;;;;;;5.43;2.78;;;26.40;52.60;;;;;;5051556;28;20390;-62
2023/09/08 09:56:13;;;;;;;3.42;3.03;;;26.40;52.70;;;;;;5028631;28;20037;-63
2023/09/08 09:58:40;;;;;;;4.28;3.03;;;26.40;52.70;;;;;;5031843;28;20036;-61
2023/09/08 10:01:07;;;;;;;3.63;3.33;;;26.40;52.80;;;;;;5025487;28;20033;-62
2023/09/08 10:03:33;;;;;;;5.28;3.42;;;26.40;52.90;;;;;;5033909;28;20036;-62
2023/09/08 10:05:59;;;;;;;4.85;3.35;;;26.40;52.90;;;;;;5031804;28;20034;-62
2023/09/08 10:08:26;;;;;;;3.72;3.30;;;26.40;53.00;;;;;;5033408;28;20039;-62
2023/09/08 10:10:53;;;;;;;3.50;3.05;;;26.50;53.20;;;;;;5030347;28;20037;-62
2023/09/08 10:13:27;;;;;;;4.13;3.30;;;26.50;53.30;;;;;;5048620;28;20024;-63
2023/09/08 10:15:56;;;;;;;;;;;26.50;53.40;;;;;;5051792;28;20029;-63
2023/09/08 10:18:23;;;;;;;4.40;3.25;;;26.50;53.40;;;;;;5026772;28;19916;-61
2023/09/08 10:20:53;;;;;;;3.53;3.17;;;26.50;53.50;;;;;;5045712;28;20036;-63
2023/09/08 10:23:34;;;;;;;3.38;2.72;;;26.50;54.20;;;;;;5029019;28;20136;-62
2023/09/08 10:26:05;;;;;;;3.47;2.90;;;26.60;53.60;;;;;;5051851;28;20083;-62
2023/09/08 10:28:33;;;;;;;4.05;3.20;;;26.60;53.70;;;;;;5038946;28;20048;-62
2023/09/08 10:31:00;;;;;;;3.92;3.53;;;26.60;53.70;;;;;;5030782;28;20406;-62
2023/09/08 10:33:27;;;;;;;3.28;2.97;;;26.60;53.80;;;;;;5030729;28;20048;-63
2023/09/08 10:35:53;;;;;;;4.18;3.28;;;26.60;53.90;;;;;;5033868;28;20041;-64
2023/09/08 10:38:27;;;;;;;5.65;3.22;;;26.60;54.00;;;;;;5005786;28;20029;-62
2023/09/08 10:41:13;;;;;;;5.03;3.03;;;26.60;54.00;;;;;;5040772;28;20033;-68
2023/09/08 10:43:40;;;;;;;3.65;3.25;;;26.60;54.10;;;;;;5025858;28;20025;-66
2023/09/08 10:46:10;;;;;;;3.33;3.03;;;26.60;54.20;;;;;;5041279;28;20074;-68
2023/09/08 10:48:43;;;;;;;2.97;2.63;;;26.60;54.20;;;;;;5031144;28;20037;-68
2023/09/08 10:51:15;;;;;;;3.28;2.55;;;26.70;54.10;;;;;;5020110;28;20021;-67
2023/09/08 10:53:42;;;;;;;2.90;2.47;;;26.80;54.00;;;;;;5036368;28;20026;-65
2023/09/08 10:56:09;;;;;;;3.53;2.88;;;26.90;53.90;;;;;;5029459;28;20089;-65
2023/09/08 10:58:38;;;;;;;2.97;2.63;;;26.90;53.70;;;;;;5031908;28;20443;-68
2023/09/08 11:01:05;;;;;;;4.00;3.13;;;27.10;53.60;;;;;;5016703;28;20096;-65
2023/09/08 11:03:37;;;;;;;3.33;2.53;;;27.20;53.40;;;;;;5016159;28;20349;-65
2023/09/08 11:06:03;;;;;;;3.55;2.75;;;27.30;53.20;;;;;;5028490;28;20072;-63
2023/09/08 11:08:30;;;;;;;4.10;2.90;;;27.40;53.00;;;;;;5005104;28;20087;-63
2023/09/08 11:10:56;;;;;;;2.90;2.35;;;27.50;52.90;;;;;;5024245;28;20038;-62
2023/09/08 11:13:22;;;;;;;3.10;2.72;;;27.50;52.80;;;;;;5011499;28;20432;-64
2023/09/08 11:15:52;;;;;;;2.70;2.42;;;27.50;52.70;;;;;;5028207;28;20192;-62
2023/09/08 11:18:25;;;;;;;3.33;2.60;;;27.60;52.70;;;;;;5019144;28;20116;-65
2023/09/08 11:20:55;;;;;;;3.50;2.38;;;27.60;52.80;;;;;;5034572;28;20108;-63
2023/09/08 11:23:21;;;;;;;4.18;3.60;;;27.60;52.90;;;;;;5044263;28;20068;-65
2023/09/08 11:25:49;;;;;;;4.07;3.63;;;27.50;52.90;;;;;;5041938;28;20051;-65
2023/09/08 11:28:15;;;;;;;6.15;3.38;;;27.50;52.70;;;;;;5051223;28;20408;-63
2023/09/08 11:30:41;;;;;;;4.75;3.70;;;27.40;52.60;;;;;;5044524;28;21737;-65
2023/09/08 11:33:26;;;;;;;7.00;3.50;;;27.20;51.00;;;;;;5034232;28;20026;-64
2023/09/08 11:35:55;;;;;;;4.03;3.40;;;27.10;49.80;;;;;;5027557;28;20052;-64
2023/09/08 11:38:28;;;;;;;5.95;3.38;;;26.80;49.40;;;;;;5046424;28;20089;-66
2023/09/08 11:40:57;;;;;;;4.20;3.80;;;26.60;49.00;;;;;;5049244;28;20115;-64
2023/09/08 11:43:27;;;;;;;5.53;3.50;;;26.40;48.60;;;;;;5039438;28;20025;-65
2023/09/08 11:45:59;;;;;;;5.82;3.38;;;26.20;48.10;;;;;;5030613;28;20100;-62
2023/09/08 11:48:25;;;;;;;6.05;3.10;;;26.10;47.80;;;;;;5014432;28;20129;-61
2023/09/08 11:50:54;;;;;;;3.63;2.90;;;26.00;48.50;;;;;;5035081;28;20037;-62
2023/09/08 11:53:21;;;;;;;5.35;2.80;;;26.10;49.10;;;;;;5035844;28;20021;-63
2023/09/08 11:55:49;;;;;;;5.50;3.03;;;26.20;49.50;;;;;;5038178;28;20038;-64
2023/09/08 11:58:16;;;;;;;5.72;3.88;;;26.40;50.70;;;;;;5026686;28;20041;-68
2023/09/08 12:00:49;;;;;;;4.72;3.22;;;26.50;51.90;;;;;;5034722;28;20037;-66
2023/09/08 12:03:16;;;;;;;4.85;3.30;;;26.40;50.20;;;;;;5041099;28;20017;-69
2023/09/08 12:05:50;;;;;;;5.55;3.00;;;26.30;49.10;;;;;;5021089;28;20447;-67
2023/09/08 12:08:18;;;;;;;3.13;2.83;;;26.20;48.60;;;;;;5034596;28;20053;-66
2023/09/08 12:10:44;;;;;;;3.33;3.03;;;26.10;49.10;;;;;;5034625;28;20033;-66
2023/09/08 12:13:23;;;;;;;2.92;2.55;;;26.20;49.30;;;;;;5035324;28;20053;-65
2023/09/08 12:15:51;;;;;;;3.60;2.45;;;26.40;49.50;;;;;;5038634;28;20054;-66
2023/09/08 12:18:18;;;;;;;2.80;2.55;;;26.50;49.60;;;;;;5024670;28;20024;-66
2023/09/08 12:20:45;;;;;;;2.80;2.45;;;26.70;49.60;;;;;;5043059;28;20495;-64
2023/09/08 12:23:19;;;;;;;3.97;2.45;;;26.90;49.70;;;;;;5024507;28;20028;-67
2023/09/08 12:25:49;;;;;;;4.35;2.78;;;27.00;49.70;;;;;;5040368;28;20048;-64
2023/09/08 12:28:18;;;;;;;2.90;2.22;;;27.20;49.90;;;;;;5032921;28;20026;-65
2023/09/08 12:30:46;;;;;;;4.22;3.15;;;27.30;49.80;;;;;;5040288;28;20063;-65
2023/09/08 12:33:14;;;;;;;3.03;2.50;;;27.50;49.90;;;;;;5029990;28;20044;-65
2023/09/08 12:35:44;;;;;;;3.42;2.50;;;27.60;49.90;;;;;;5038699;28;20041;-66
2023/09/08 12:38:10;;;;;;;2.75;2.40;;;27.70;49.90;;;;;;5011527;28;20041;-64
2023/09/08 12:40:38;;;;;;;2.70;2.28;;;27.80;49.90;;;;;;5030259;28;20025;-65
2023/09/08 12:43:04;;;;;;;2.95;2.60;;;27.90;49.90;;;;;;5029272;28;20033;-66
2023/09/08 12:45:31;;;;;;;3.72;2.70;;;28.00;49.90;;;;;;5027977;28;20113;-65
2023/09/08 12:48:02;;;;;;;2.90;2.40;;;28.00;49.80;;;;;;5028243;28;20046;-64
2023/09/08 12:50:28;;;;;;;3.72;2.35;;;28.00;49.80;;;;;;5026623;28;20044;-65